sensor_id;sensor_type;location;lat;lon;timestamp;P1;durP1;ratioP1;P2;durP2;ratioP2
31336;SDS011;22846;42.654;23.314;2023-02-03T00:00:04;28.02;;;20.42;;
31336;SDS011;22846;42.654;23.314;2023-02-03T00:02:31;28.13;;;21.00;;
31336;SDS011;22846;42.654;23.314;2023-02-03T00:04:56;28.40;;;20.40;;
31336;SDS011;22846;42.654;23.314;2023-02-03T00:07:21;29.08;;;20.42;;
31336;SDS011;22846;42.654;23.314;2023-02-03T00:09:47;27.48;;;20.40;;
31336;SDS011;22846;42.654;23.314;2023-02-03T00:12:13;28.40;;;19.98;;
31336;SDS011;22846;42.654;23.314;2023-02-03T00:14:38;28.10;;;20.00;;
31336;SDS011;22846;42.654;23.314;2023-02-03T00:17:04;27.42;;;19.42;;
31336;SDS011;22846;42.654;23.314;2023-02-03T00:19:29;24.25;;;18.88;;
31336;SDS011;22846;42.654;23.314;2023-02-03T00:21:55;25.77;;;18.88;;
31336;SDS011;22846;42.654;23.314;2023-02-03T00:24:21;24.00;;;17.60;;
31336;SDS011;22846;42.654;23.314;2023-02-03T00:26:48;25.23;;;17.73;;
31336;SDS011;22846;42.654;23.314;2023-02-03T00:29:14;30.25;;;18.35;;
31336;SDS011;22846;42.654;23.314;2023-02-03T00:31:39;24.80;;;18.27;;
31336;SDS011;22846;42.654;23.314;2023-02-03T00:34:05;25.17;;;17.35;;
31336;SDS011;22846;42.654;23.314;2023-02-03T00:36:31;24.00;;;17.55;;
31336;SDS011;22846;42.654;23.314;2023-02-03T00:38:56;24.25;;;16.90;;
31336;SDS011;22846;42.654;23.314;2023-02-03T00:41:22;26.17;;;17.27;;
31336;SDS011;22846;42.654;23.314;2023-02-03T00:43:48;24.42;;;16.52;;
31336;SDS011;22846;42.654;23.314;2023-02-03T00:46:15;24.20;;;16.42;;
31336;SDS011;22846;42.654;23.314;2023-02-03T00:48:40;26.80;;;16.17;;
31336;SDS011;22846;42.654;23.314;2023-02-03T00:51:06;24.52;;;15.73;;
31336;SDS011;22846;42.654;23.314;2023-02-03T00:53:31;24.00;;;15.90;;
31336;SDS011;22846;42.654;23.314;2023-02-03T00:55:57;25.23;;;16.00;;
31336;SDS011;22846;42.654;23.314;2023-02-03T00:58:22;22.83;;;15.13;;
31336;SDS011;22846;42.654;23.314;2023-02-03T01:00:47;21.20;;;14.63;;
31336;SDS011;22846;42.654;23.314;2023-02-03T01:03:13;22.98;;;14.93;;
31336;SDS011;22846;42.654;23.314;2023-02-03T01:05:38;22.50;;;14.88;;
31336;SDS011;22846;42.654;23.314;2023-02-03T01:08:04;24.05;;;15.07;;
31336;SDS011;22846;42.654;23.314;2023-02-03T01:10:29;20.02;;;14.52;;
31336;SDS011;22846;42.654;23.314;2023-02-03T01:12:55;20.73;;;14.25;;
31336;SDS011;22846;42.654;23.314;2023-02-03T01:15:20;22.13;;;14.35;;
31336;SDS011;22846;42.654;23.314;2023-02-03T01:17:46;23.00;;;13.73;;
31336;SDS011;22846;42.654;23.314;2023-02-03T01:20:12;20.85;;;13.98;;
31336;SDS011;22846;42.654;23.314;2023-02-03T01:22:37;22.35;;;14.52;;
31336;SDS011;22846;42.654;23.314;2023-02-03T01:25:03;19.33;;;13.20;;
31336;SDS011;22846;42.654;23.314;2023-02-03T01:27:30;20.30;;;12.77;;
31336;SDS011;22846;42.654;23.314;2023-02-03T01:29:56;21.33;;;13.27;;
31336;SDS011;22846;42.654;23.314;2023-02-03T01:32:21;21.35;;;13.55;;
31336;SDS011;22846;42.654;23.314;2023-02-03T01:34:47;20.40;;;12.88;;
31336;SDS011;22846;42.654;23.314;2023-02-03T01:37:12;20.92;;;12.88;;
31336;SDS011;22846;42.654;23.314;2023-02-03T01:39:41;17.42;;;12.88;;
31336;SDS011;22846;42.654;23.314;2023-02-03T01:42:07;21.63;;;12.77;;
31336;SDS011;22846;42.654;23.314;2023-02-03T01:44:41;17.75;;;11.95;;
31336;SDS011;22846;42.654;23.314;2023-02-03T01:47:29;19.52;;;12.23;;
31336;SDS011;22846;42.654;23.314;2023-02-03T01:52:31;16.73;;;11.13;;
31336;SDS011;22846;42.654;23.314;2023-02-03T01:54:58;16.55;;;11.95;;
31336;SDS011;22846;42.654;23.314;2023-02-03T01:57:33;18.52;;;11.73;;
31336;SDS011;22846;42.654;23.314;2023-02-03T02:00:03;15.88;;;10.88;;
31336;SDS011;22846;42.654;23.314;2023-02-03T02:02:31;18.25;;;11.18;;
31336;SDS011;22846;42.654;23.314;2023-02-03T02:05:08;15.57;;;10.73;;
31336;SDS011;22846;42.654;23.314;2023-02-03T02:07:41;17.50;;;10.70;;
31336;SDS011;22846;42.654;23.314;2023-02-03T02:10:08;14.68;;;10.48;;
31336;SDS011;22846;42.654;23.314;2023-02-03T02:12:34;15.88;;;10.73;;
31336;SDS011;22846;42.654;23.314;2023-02-03T02:14:59;16.70;;;10.68;;
31336;SDS011;22846;42.654;23.314;2023-02-03T02:17:33;14.70;;;10.25;;
31336;SDS011;22846;42.654;23.314;2023-02-03T02:25:33;13.60;;;9.18;;
31336;SDS011;22846;42.654;23.314;2023-02-03T02:39:44;11.80;;;8.43;;
31336;SDS011;22846;42.654;23.314;2023-02-03T02:45:40;12.23;;;8.55;;
31336;SDS011;22846;42.654;23.314;2023-02-03T02:48:15;13.02;;;8.35;;
31336;SDS011;22846;42.654;23.314;2023-02-03T02:50:47;11.40;;;8.50;;
31336;SDS011;22846;42.654;23.314;2023-02-03T02:53:15;14.52;;;7.90;;
31336;SDS011;22846;42.654;23.314;2023-02-03T02:55:43;11.40;;;7.90;;
31336;SDS011;22846;42.654;23.314;2023-02-03T02:58:11;11.23;;;8.00;;
31336;SDS011;22846;42.654;23.314;2023-02-03T03:00:39;11.20;;;7.70;;
31336;SDS011;22846;42.654;23.314;2023-02-03T03:03:17;11.35;;;7.80;;
31336;SDS011;22846;42.654;23.314;2023-02-03T03:05:50;11.57;;;7.95;;
31336;SDS011;22846;42.654;23.314;2023-02-03T03:08:21;10.98;;;8.13;;
31336;SDS011;22846;42.654;23.314;2023-02-03T03:10:51;9.82;;;7.55;;
31336;SDS011;22846;42.654;23.314;2023-02-03T03:13:21;9.48;;;7.22;;
31336;SDS011;22846;42.654;23.314;2023-02-03T03:15:50;10.20;;;7.07;;
31336;SDS011;22846;42.654;23.314;2023-02-03T03:18:19;11.52;;;7.55;;
31336;SDS011;22846;42.654;23.314;2023-02-03T03:20:49;11.73;;;7.07;;
31336;SDS011;22846;42.654;23.314;2023-02-03T03:23:21;8.50;;;6.57;;
31336;SDS011;22846;42.654;23.314;2023-02-03T03:25:56;10.80;;;6.78;;
31336;SDS011;22846;42.654;23.314;2023-02-03T03:28:34;10.88;;;7.45;;
31336;SDS011;22846;42.654;23.314;2023-02-03T03:31:06;9.35;;;6.60;;
31336;SDS011;22846;42.654;23.314;2023-02-03T03:33:31;8.85;;;6.22;;
31336;SDS011;22846;42.654;23.314;2023-02-03T03:36:00;10.48;;;6.47;;
31336;SDS011;22846;42.654;23.314;2023-02-03T03:41:15;9.02;;;6.35;;
31336;SDS011;22846;42.654;23.314;2023-02-03T03:43:50;10.35;;;6.43;;
31336;SDS011;22846;42.654;23.314;2023-02-03T03:46:20;9.32;;;5.88;;
31336;SDS011;22846;42.654;23.314;2023-02-03T03:48:53;8.13;;;6.15;;
31336;SDS011;22846;42.654;23.314;2023-02-03T03:51:33;8.95;;;6.22;;
31336;SDS011;22846;42.654;23.314;2023-02-03T03:54:04;8.70;;;6.03;;
31336;SDS011;22846;42.654;23.314;2023-02-03T03:56:41;7.65;;;5.68;;
31336;SDS011;22846;42.654;23.314;2023-02-03T03:59:09;8.07;;;5.63;;
31336;SDS011;22846;42.654;23.314;2023-02-03T04:01:37;7.93;;;5.60;;
31336;SDS011;22846;42.654;23.314;2023-02-03T04:04:05;8.23;;;5.90;;
31336;SDS011;22846;42.654;23.314;2023-02-03T04:06:33;8.70;;;5.75;;
31336;SDS011;22846;42.654;23.314;2023-02-03T04:08:58;7.00;;;5.30;;
31336;SDS011;22846;42.654;23.314;2023-02-03T04:11:26;7.22;;;5.15;;
31336;SDS011;22846;42.654;23.314;2023-02-03T04:14:10;7.20;;;5.07;;
31336;SDS011;22846;42.654;23.314;2023-02-03T04:16:35;7.07;;;5.10;;
31336;SDS011;22846;42.654;23.314;2023-02-03T04:19:01;6.93;;;4.93;;
31336;SDS011;22846;42.654;23.314;2023-02-03T04:21:27;6.47;;;4.50;;
31336;SDS011;22846;42.654;23.314;2023-02-03T04:23:52;6.38;;;4.93;;
31336;SDS011;22846;42.654;23.314;2023-02-03T04:26:20;7.18;;;4.15;;
31336;SDS011;22846;42.654;23.314;2023-02-03T04:28:45;6.90;;;4.95;;
31336;SDS011;22846;42.654;23.314;2023-02-03T04:31:11;6.03;;;4.60;;
31336;SDS011;22846;42.654;23.314;2023-02-03T04:33:36;5.47;;;4.03;;
31336;SDS011;22846;42.654;23.314;2023-02-03T04:36:02;6.20;;;4.47;;
31336;SDS011;22846;42.654;23.314;2023-02-03T04:38:27;4.22;;;3.65;;
31336;SDS011;22846;42.654;23.314;2023-02-03T04:40:53;5.20;;;3.85;;
31336;SDS011;22846;42.654;23.314;2023-02-03T04:43:18;5.13;;;3.63;;
31336;SDS011;22846;42.654;23.314;2023-02-03T04:45:44;5.40;;;3.80;;
31336;SDS011;22846;42.654;23.314;2023-02-03T04:48:09;5.13;;;3.72;;
31336;SDS011;22846;42.654;23.314;2023-02-03T04:50:34;3.80;;;3.10;;
31336;SDS011;22846;42.654;23.314;2023-02-03T04:53:00;5.28;;;4.05;;
31336;SDS011;22846;42.654;23.314;2023-02-03T04:55:27;5.30;;;3.80;;
31336;SDS011;22846;42.654;23.314;2023-02-03T04:57:56;4.70;;;3.45;;
31336;SDS011;22846;42.654;23.314;2023-02-03T05:00:22;4.53;;;3.47;;
31336;SDS011;22846;42.654;23.314;2023-02-03T05:02:48;4.53;;;3.67;;
31336;SDS011;22846;42.654;23.314;2023-02-03T05:05:13;5.35;;;3.33;;
31336;SDS011;22846;42.654;23.314;2023-02-03T05:07:39;4.90;;;3.22;;
31336;SDS011;22846;42.654;23.314;2023-02-03T05:10:05;6.65;;;3.10;;
31336;SDS011;22846;42.654;23.314;2023-02-03T05:12:31;4.63;;;3.70;;
31336;SDS011;22846;42.654;23.314;2023-02-03T05:14:56;4.97;;;3.40;;
31336;SDS011;22846;42.654;23.314;2023-02-03T05:17:22;6.50;;;3.63;;
31336;SDS011;22846;42.654;23.314;2023-02-03T05:19:47;5.75;;;3.22;;
31336;SDS011;22846;42.654;23.314;2023-02-03T05:22:12;5.00;;;3.47;;
31336;SDS011;22846;42.654;23.314;2023-02-03T05:24:38;5.55;;;3.33;;
31336;SDS011;22846;42.654;23.314;2023-02-03T05:27:03;5.35;;;3.42;;
31336;SDS011;22846;42.654;23.314;2023-02-03T05:29:29;5.55;;;2.70;;
31336;SDS011;22846;42.654;23.314;2023-02-03T05:31:54;5.68;;;2.58;;
31336;SDS011;22846;42.654;23.314;2023-02-03T05:34:19;6.18;;;3.00;;
31336;SDS011;22846;42.654;23.314;2023-02-03T05:36:45;4.05;;;2.67;;
31336;SDS011;22846;42.654;23.314;2023-02-03T05:39:10;5.35;;;2.75;;
31336;SDS011;22846;42.654;23.314;2023-02-03T05:41:36;5.13;;;2.78;;
31336;SDS011;22846;42.654;23.314;2023-02-03T05:44:17;4.25;;;2.60;;
31336;SDS011;22846;42.654;23.314;2023-02-03T05:46:43;3.45;;;2.40;;
31336;SDS011;22846;42.654;23.314;2023-02-03T05:49:08;8.02;;;2.50;;
31336;SDS011;22846;42.654;23.314;2023-02-03T05:51:34;3.97;;;2.40;;
31336;SDS011;22846;42.654;23.314;2023-02-03T05:53:59;5.32;;;2.50;;
31336;SDS011;22846;42.654;23.314;2023-02-03T05:56:25;3.85;;;2.58;;
31336;SDS011;22846;42.654;23.314;2023-02-03T05:58:50;4.63;;;2.58;;
31336;SDS011;22846;42.654;23.314;2023-02-03T06:01:17;2.83;;;2.30;;
31336;SDS011;22846;42.654;23.314;2023-02-03T06:03:43;4.80;;;2.75;;
31336;SDS011;22846;42.654;23.314;2023-02-03T06:06:09;3.28;;;2.58;;
31336;SDS011;22846;42.654;23.314;2023-02-03T06:08:34;5.40;;;2.70;;
31336;SDS011;22846;42.654;23.314;2023-02-03T06:11:00;5.03;;;2.75;;
31336;SDS011;22846;42.654;23.314;2023-02-03T06:13:25;4.03;;;2.47;;
31336;SDS011;22846;42.654;23.314;2023-02-03T06:15:51;5.20;;;2.70;;
31336;SDS011;22846;42.654;23.314;2023-02-03T06:18:17;5.15;;;3.33;;
31336;SDS011;22846;42.654;23.314;2023-02-03T06:20:42;5.55;;;3.40;;
31336;SDS011;22846;42.654;23.314;2023-02-03T06:23:07;5.38;;;2.40;;
31336;SDS011;22846;42.654;23.314;2023-02-03T06:25:33;12.18;;;2.92;;
31336;SDS011;22846;42.654;23.314;2023-02-03T06:27:58;6.10;;;2.33;;
31336;SDS011;22846;42.654;23.314;2023-02-03T06:30:24;7.72;;;3.20;;
31336;SDS011;22846;42.654;23.314;2023-02-03T06:32:49;11.30;;;2.55;;
31336;SDS011;22846;42.654;23.314;2023-02-03T06:35:15;11.25;;;3.10;;
31336;SDS011;22846;42.654;23.314;2023-02-03T06:37:41;7.03;;;2.83;;
31336;SDS011;22846;42.654;23.314;2023-02-03T06:40:07;6.65;;;2.97;;
31336;SDS011;22846;42.654;23.314;2023-02-03T06:42:34;13.80;;;3.53;;
31336;SDS011;22846;42.654;23.314;2023-02-03T06:45:00;8.25;;;3.00;;
31336;SDS011;22846;42.654;23.314;2023-02-03T06:47:26;10.65;;;3.25;;
31336;SDS011;22846;42.654;23.314;2023-02-03T06:49:51;11.35;;;3.63;;
31336;SDS011;22846;42.654;23.314;2023-02-03T06:52:17;8.60;;;3.50;;
31336;SDS011;22846;42.654;23.314;2023-02-03T06:54:43;9.65;;;3.55;;
31336;SDS011;22846;42.654;23.314;2023-02-03T06:57:08;14.57;;;3.22;;
31336;SDS011;22846;42.654;23.314;2023-02-03T06:59:34;8.88;;;3.83;;
31336;SDS011;22846;42.654;23.314;2023-02-03T07:01:59;7.38;;;3.80;;
31336;SDS011;22846;42.654;23.314;2023-02-03T07:04:24;8.45;;;3.72;;
31336;SDS011;22846;42.654;23.314;2023-02-03T07:06:54;8.68;;;3.42;;
31336;SDS011;22846;42.654;23.314;2023-02-03T07:09:20;9.30;;;3.80;;
31336;SDS011;22846;42.654;23.314;2023-02-03T07:11:45;9.52;;;3.58;;
31336;SDS011;22846;42.654;23.314;2023-02-03T07:14:10;8.93;;;3.50;;
31336;SDS011;22846;42.654;23.314;2023-02-03T07:16:36;5.78;;;3.17;;
31336;SDS011;22846;42.654;23.314;2023-02-03T07:19:01;8.85;;;3.15;;
31336;SDS011;22846;42.654;23.314;2023-02-03T07:21:27;6.38;;;2.65;;
31336;SDS011;22846;42.654;23.314;2023-02-03T07:23:52;8.23;;;3.25;;
31336;SDS011;22846;42.654;23.314;2023-02-03T07:26:18;5.53;;;3.13;;
31336;SDS011;22846;42.654;23.314;2023-02-03T07:28:43;8.75;;;3.50;;
31336;SDS011;22846;42.654;23.314;2023-02-03T07:31:09;5.07;;;3.00;;
31336;SDS011;22846;42.654;23.314;2023-02-03T07:33:37;6.88;;;3.13;;
31336;SDS011;22846;42.654;23.314;2023-02-03T07:36:03;5.80;;;3.58;;
31336;SDS011;22846;42.654;23.314;2023-02-03T07:38:29;7.15;;;3.30;;
31336;SDS011;22846;42.654;23.314;2023-02-03T07:40:55;5.38;;;3.10;;
31336;SDS011;22846;42.654;23.314;2023-02-03T07:43:20;4.22;;;2.78;;
31336;SDS011;22846;42.654;23.314;2023-02-03T07:45:46;7.13;;;3.22;;
31336;SDS011;22846;42.654;23.314;2023-02-03T07:48:12;8.35;;;3.10;;
31336;SDS011;22846;42.654;23.314;2023-02-03T07:50:37;7.40;;;3.03;;
31336;SDS011;22846;42.654;23.314;2023-02-03T07:53:03;5.38;;;2.50;;
31336;SDS011;22846;42.654;23.314;2023-02-03T07:55:28;6.00;;;2.63;;
31336;SDS011;22846;42.654;23.314;2023-02-03T07:57:54;5.50;;;2.90;;
31336;SDS011;22846;42.654;23.314;2023-02-03T08:00:21;4.70;;;2.90;;
31336;SDS011;22846;42.654;23.314;2023-02-03T08:02:47;3.90;;;2.25;;
31336;SDS011;22846;42.654;23.314;2023-02-03T08:05:12;6.53;;;2.90;;
31336;SDS011;22846;42.654;23.314;2023-02-03T08:07:38;6.38;;;3.10;;
31336;SDS011;22846;42.654;23.314;2023-02-03T08:10:04;5.03;;;2.58;;
31336;SDS011;22846;42.654;23.314;2023-02-03T08:12:31;3.92;;;2.40;;
31336;SDS011;22846;42.654;23.314;2023-02-03T08:14:56;4.20;;;2.47;;
31336;SDS011;22846;42.654;23.314;2023-02-03T08:17:22;4.15;;;2.92;;
31336;SDS011;22846;42.654;23.314;2023-02-03T08:19:47;3.80;;;2.38;;
31336;SDS011;22846;42.654;23.314;2023-02-03T08:22:12;3.80;;;2.70;;
31336;SDS011;22846;42.654;23.314;2023-02-03T08:24:44;3.78;;;2.28;;
31336;SDS011;22846;42.654;23.314;2023-02-03T08:27:15;5.78;;;2.67;;
31336;SDS011;22846;42.654;23.314;2023-02-03T08:29:42;4.40;;;2.92;;
31336;SDS011;22846;42.654;23.314;2023-02-03T08:32:09;4.80;;;2.70;;
31336;SDS011;22846;42.654;23.314;2023-02-03T08:34:35;4.35;;;2.50;;
31336;SDS011;22846;42.654;23.314;2023-02-03T08:37:00;5.63;;;2.45;;
31336;SDS011;22846;42.654;23.314;2023-02-03T08:39:26;5.47;;;2.85;;
31336;SDS011;22846;42.654;23.314;2023-02-03T08:41:52;3.65;;;2.30;;
31336;SDS011;22846;42.654;23.314;2023-02-03T08:44:17;4.18;;;2.45;;
31336;SDS011;22846;42.654;23.314;2023-02-03T08:46:44;3.80;;;2.58;;
31336;SDS011;22846;42.654;23.314;2023-02-03T08:49:13;3.08;;;2.45;;
31336;SDS011;22846;42.654;23.314;2023-02-03T08:51:38;3.35;;;2.50;;
31336;SDS011;22846;42.654;23.314;2023-02-03T08:54:03;3.45;;;2.40;;
31336;SDS011;22846;42.654;23.314;2023-02-03T08:56:29;3.47;;;2.33;;
31336;SDS011;22846;42.654;23.314;2023-02-03T08:58:54;4.03;;;2.70;;
31336;SDS011;22846;42.654;23.314;2023-02-03T09:01:20;4.00;;;2.67;;
31336;SDS011;22846;42.654;23.314;2023-02-03T09:03:45;3.05;;;2.38;;
31336;SDS011;22846;42.654;23.314;2023-02-03T09:06:11;5.28;;;2.67;;
31336;SDS011;22846;42.654;23.314;2023-02-03T09:08:40;2.85;;;2.30;;
31336;SDS011;22846;42.654;23.314;2023-02-03T09:11:10;3.75;;;2.42;;
31336;SDS011;22846;42.654;23.314;2023-02-03T09:13:37;6.65;;;2.47;;
31336;SDS011;22846;42.654;23.314;2023-02-03T09:16:04;4.13;;;2.42;;
31336;SDS011;22846;42.654;23.314;2023-02-03T09:18:31;4.30;;;2.40;;
31336;SDS011;22846;42.654;23.314;2023-02-03T09:21:03;3.85;;;2.20;;
31336;SDS011;22846;42.654;23.314;2023-02-03T09:23:30;4.45;;;2.28;;
31336;SDS011;22846;42.654;23.314;2023-02-03T09:25:56;3.75;;;2.45;;
31336;SDS011;22846;42.654;23.314;2023-02-03T09:28:27;3.22;;;2.22;;
31336;SDS011;22846;42.654;23.314;2023-02-03T09:30:53;2.92;;;2.10;;
31336;SDS011;22846;42.654;23.314;2023-02-03T09:33:18;3.28;;;2.35;;
31336;SDS011;22846;42.654;23.314;2023-02-03T09:35:51;2.60;;;1.88;;
31336;SDS011;22846;42.654;23.314;2023-02-03T09:38:20;3.92;;;2.10;;
31336;SDS011;22846;42.654;23.314;2023-02-03T09:41:36;3.50;;;2.42;;
31336;SDS011;22846;42.654;23.314;2023-02-03T09:46:31;2.88;;;2.00;;
31336;SDS011;22846;42.654;23.314;2023-02-03T09:49:07;4.53;;;2.25;;
31336;SDS011;22846;42.654;23.314;2023-02-03T09:51:44;2.95;;;2.10;;
31336;SDS011;22846;42.654;23.314;2023-02-03T09:54:17;8.00;;;2.40;;
31336;SDS011;22846;42.654;23.314;2023-02-03T09:56:47;3.10;;;2.05;;
31336;SDS011;22846;42.654;23.314;2023-02-03T09:59:16;2.97;;;2.22;;
31336;SDS011;22846;42.654;23.314;2023-02-03T10:07:50;4.55;;;1.92;;
31336;SDS011;22846;42.654;23.314;2023-02-03T10:13:08;3.35;;;1.90;;
31336;SDS011;22846;42.654;23.314;2023-02-03T10:18:46;2.88;;;2.00;;
31336;SDS011;22846;42.654;23.314;2023-02-03T10:21:17;2.65;;;1.98;;
31336;SDS011;22846;42.654;23.314;2023-02-03T10:23:54;3.05;;;1.98;;
31336;SDS011;22846;42.654;23.314;2023-02-03T10:26:24;2.55;;;1.85;;
31336;SDS011;22846;42.654;23.314;2023-02-03T10:29:00;2.30;;;1.90;;
31336;SDS011;22846;42.654;23.314;2023-02-03T10:31:33;2.65;;;1.90;;
31336;SDS011;22846;42.654;23.314;2023-02-03T10:34:03;2.90;;;2.00;;
31336;SDS011;22846;42.654;23.314;2023-02-03T10:39:56;3.33;;;2.20;;
31336;SDS011;22846;42.654;23.314;2023-02-03T10:42:24;3.00;;;2.25;;
31336;SDS011;22846;42.654;23.314;2023-02-03T10:45:10;2.72;;;1.98;;
31336;SDS011;22846;42.654;23.314;2023-02-03T10:47:37;3.00;;;2.20;;
31336;SDS011;22846;42.654;23.314;2023-02-03T10:50:26;2.78;;;1.95;;
31336;SDS011;22846;42.654;23.314;2023-02-03T10:55:42;2.22;;;1.90;;
31336;SDS011;22846;42.654;23.314;2023-02-03T10:58:13;2.45;;;1.90;;
31336;SDS011;22846;42.654;23.314;2023-02-03T11:00:41;4.47;;;2.10;;
31336;SDS011;22846;42.654;23.314;2023-02-03T11:05:33;2.55;;;1.90;;
31336;SDS011;22846;42.654;23.314;2023-02-03T11:07:59;3.50;;;2.03;;
31336;SDS011;22846;42.654;23.314;2023-02-03T11:10:29;2.75;;;1.75;;
31336;SDS011;22846;42.654;23.314;2023-02-03T11:15:48;2.30;;;2.10;;
31336;SDS011;22846;42.654;23.314;2023-02-03T11:18:43;3.10;;;1.85;;
31336;SDS011;22846;42.654;23.314;2023-02-03T11:21:26;2.17;;;1.80;;
31336;SDS011;22846;42.654;23.314;2023-02-03T11:29:22;3.28;;;2.10;;
31336;SDS011;22846;42.654;23.314;2023-02-03T11:31:51;2.72;;;2.00;;
31336;SDS011;22846;42.654;23.314;2023-02-03T11:34:19;4.13;;;2.15;;
31336;SDS011;22846;42.654;23.314;2023-02-03T11:36:51;2.53;;;1.90;;
31336;SDS011;22846;42.654;23.314;2023-02-03T11:39:22;3.00;;;2.25;;
31336;SDS011;22846;42.654;23.314;2023-02-03T11:41:53;2.90;;;2.00;;
31336;SDS011;22846;42.654;23.314;2023-02-03T11:44:23;2.45;;;1.90;;
31336;SDS011;22846;42.654;23.314;2023-02-03T11:47:00;2.67;;;2.17;;
31336;SDS011;22846;42.654;23.314;2023-02-03T11:55:07;3.13;;;2.20;;
31336;SDS011;22846;42.654;23.314;2023-02-03T12:00:52;3.28;;;2.05;;
31336;SDS011;22846;42.654;23.314;2023-02-03T12:06:10;3.85;;;2.10;;
31336;SDS011;22846;42.654;23.314;2023-02-03T12:22:22;2.83;;;1.90;;
31336;SDS011;22846;42.654;23.314;2023-02-03T12:27:54;2.17;;;1.95;;
31336;SDS011;22846;42.654;23.314;2023-02-03T12:30:31;2.03;;;1.83;;
31336;SDS011;22846;42.654;23.314;2023-02-03T12:33:03;3.72;;;1.90;;
31336;SDS011;22846;42.654;23.314;2023-02-03T12:35:38;2.42;;;1.88;;
31336;SDS011;22846;42.654;23.314;2023-02-03T12:38:16;2.22;;;1.75;;
31336;SDS011;22846;42.654;23.314;2023-02-03T12:40:57;2.47;;;1.90;;
31336;SDS011;22846;42.654;23.314;2023-02-03T12:43:43;4.03;;;1.65;;
31336;SDS011;22846;42.654;23.314;2023-02-03T12:46:31;3.13;;;2.10;;
31336;SDS011;22846;42.654;23.314;2023-02-03T12:49:09;2.70;;;2.00;;
31336;SDS011;22846;42.654;23.314;2023-02-03T12:54:47;2.42;;;1.92;;
31336;SDS011;22846;42.654;23.314;2023-02-03T12:57:26;2.47;;;1.75;;
31336;SDS011;22846;42.654;23.314;2023-02-03T12:59:59;2.10;;;1.90;;
31336;SDS011;22846;42.654;23.314;2023-02-03T13:02:33;2.35;;;1.80;;
31336;SDS011;22846;42.654;23.314;2023-02-03T13:05:31;2.35;;;1.77;;
31336;SDS011;22846;42.654;23.314;2023-02-03T13:08:22;2.78;;;1.75;;
31336;SDS011;22846;42.654;23.314;2023-02-03T13:10:56;2.80;;;2.20;;
31336;SDS011;22846;42.654;23.314;2023-02-03T13:13:38;1.80;;;1.65;;
31336;SDS011;22846;42.654;23.314;2023-02-03T13:16:08;3.60;;;2.28;;
31336;SDS011;22846;42.654;23.314;2023-02-03T13:18:36;2.67;;;1.88;;
31336;SDS011;22846;42.654;23.314;2023-02-03T13:21:07;2.72;;;2.15;;
31336;SDS011;22846;42.654;23.314;2023-02-03T13:23:35;2.85;;;1.85;;
31336;SDS011;22846;42.654;23.314;2023-02-03T13:31:36;2.15;;;1.95;;
31336;SDS011;22846;42.654;23.314;2023-02-03T13:39:59;2.28;;;1.80;;
31336;SDS011;22846;42.654;23.314;2023-02-03T13:42:31;2.63;;;1.83;;
31336;SDS011;22846;42.654;23.314;2023-02-03T13:45:08;3.22;;;2.00;;
31336;SDS011;22846;42.654;23.314;2023-02-03T13:47:49;2.00;;;1.70;;
31336;SDS011;22846;42.654;23.314;2023-02-03T13:50:21;2.20;;;1.88;;
31336;SDS011;22846;42.654;23.314;2023-02-03T13:55:41;3.80;;;1.80;;
31336;SDS011;22846;42.654;23.314;2023-02-03T13:58:24;2.22;;;1.95;;
31336;SDS011;22846;42.654;23.314;2023-02-03T14:03:17;2.63;;;1.92;;
31336;SDS011;22846;42.654;23.314;2023-02-03T14:06:02;1.70;;;1.40;;
31336;SDS011;22846;42.654;23.314;2023-02-03T14:08:40;2.45;;;1.70;;
31336;SDS011;22846;42.654;23.314;2023-02-03T14:16:28;1.98;;;1.50;;
31336;SDS011;22846;42.654;23.314;2023-02-03T14:19:01;1.67;;;1.38;;
31336;SDS011;22846;42.654;23.314;2023-02-03T14:21:26;1.40;;;1.20;;
31336;SDS011;22846;42.654;23.314;2023-02-03T14:24:03;1.55;;;1.20;;
31336;SDS011;22846;42.654;23.314;2023-02-03T14:26:33;1.90;;;1.52;;
31336;SDS011;22846;42.654;23.314;2023-02-03T14:29:22;2.13;;;1.40;;
31336;SDS011;22846;42.654;23.314;2023-02-03T14:31:55;2.17;;;1.40;;
31336;SDS011;22846;42.654;23.314;2023-02-03T14:37:09;2.08;;;1.50;;
31336;SDS011;22846;42.654;23.314;2023-02-03T14:39:41;1.65;;;1.55;;
31336;SDS011;22846;42.654;23.314;2023-02-03T14:45:07;1.30;;;1.20;;
31336;SDS011;22846;42.654;23.314;2023-02-03T14:58:42;1.85;;;1.30;;
31336;SDS011;22846;42.654;23.314;2023-02-03T15:06:36;7.60;;;1.65;;
31336;SDS011;22846;42.654;23.314;2023-02-03T15:14:49;5.82;;;1.60;;
31336;SDS011;22846;42.654;23.314;2023-02-03T15:17:25;6.88;;;1.80;;
31336;SDS011;22846;42.654;23.314;2023-02-03T15:19:51;8.38;;;1.75;;
31336;SDS011;22846;42.654;23.314;2023-02-03T15:22:21;17.27;;;2.50;;
31336;SDS011;22846;42.654;23.314;2023-02-03T15:24:56;15.05;;;2.08;;
31336;SDS011;22846;42.654;23.314;2023-02-03T15:27:27;9.77;;;2.93;;
31336;SDS011;22846;42.654;23.314;2023-02-03T15:29:54;16.77;;;2.80;;
31336;SDS011;22846;42.654;23.314;2023-02-03T15:35:05;9.00;;;2.67;;
31336;SDS011;22846;42.654;23.314;2023-02-03T15:37:40;27.50;;;17.05;;
31336;SDS011;22846;42.654;23.314;2023-02-03T15:40:22;75.63;;;49.15;;
31336;SDS011;22846;42.654;23.314;2023-02-03T15:53:29;46.17;;;25.10;;
31336;SDS011;22846;42.654;23.314;2023-02-03T15:55:58;45.60;;;24.83;;
31336;SDS011;22846;42.654;23.314;2023-02-03T15:58:31;38.03;;;22.10;;
31336;SDS011;22846;42.654;23.314;2023-02-03T16:01:04;36.60;;;22.08;;
31336;SDS011;22846;42.654;23.314;2023-02-03T16:06:18;39.10;;;16.23;;
31336;SDS011;22846;42.654;23.314;2023-02-03T16:08:50;31.45;;;15.45;;
31336;SDS011;22846;42.654;23.314;2023-02-03T16:11:20;29.40;;;15.38;;
31336;SDS011;22846;42.654;23.314;2023-02-03T16:13:48;31.88;;;15.07;;
31336;SDS011;22846;42.654;23.314;2023-02-03T16:16:15;30.90;;;14.65;;
31336;SDS011;22846;42.654;23.314;2023-02-03T16:18:47;27.45;;;13.80;;
31336;SDS011;22846;42.654;23.314;2023-02-03T16:21:26;22.67;;;12.65;;
31336;SDS011;22846;42.654;23.314;2023-02-03T16:23:55;26.85;;;12.85;;
31336;SDS011;22846;42.654;23.314;2023-02-03T16:26:22;22.95;;;12.85;;
31336;SDS011;22846;42.654;23.314;2023-02-03T16:31:48;21.40;;;11.20;;
31336;SDS011;22846;42.654;23.314;2023-02-03T16:34:32;20.85;;;11.43;;
31336;SDS011;22846;42.654;23.314;2023-02-03T16:40:09;20.75;;;11.50;;
31336;SDS011;22846;42.654;23.314;2023-02-03T16:42:54;18.83;;;10.43;;
31336;SDS011;22846;42.654;23.314;2023-02-03T16:45:38;16.38;;;9.07;;
31336;SDS011;22846;42.654;23.314;2023-02-03T16:48:22;17.25;;;9.70;;
31336;SDS011;22846;42.654;23.314;2023-02-03T16:51:09;17.10;;;8.52;;
31336;SDS011;22846;42.654;23.314;2023-02-03T16:53:43;13.35;;;8.32;;
31336;SDS011;22846;42.654;23.314;2023-02-03T16:56:10;13.50;;;7.75;;
31336;SDS011;22846;42.654;23.314;2023-02-03T16:58:36;12.05;;;7.35;;
31336;SDS011;22846;42.654;23.314;2023-02-03T17:01:02;13.45;;;8.68;;
31336;SDS011;22846;42.654;23.314;2023-02-03T17:03:29;14.15;;;8.15;;
31336;SDS011;22846;42.654;23.314;2023-02-03T17:06:00;14.57;;;7.82;;
31336;SDS011;22846;42.654;23.314;2023-02-03T17:08:30;11.48;;;8.15;;
31336;SDS011;22846;42.654;23.314;2023-02-03T17:11:00;11.13;;;7.38;;
31336;SDS011;22846;42.654;23.314;2023-02-03T17:13:28;12.10;;;7.72;;
31336;SDS011;22846;42.654;23.314;2023-02-03T17:15:53;10.25;;;7.40;;
31336;SDS011;22846;42.654;23.314;2023-02-03T17:18:19;12.35;;;7.38;;
31336;SDS011;22846;42.654;23.314;2023-02-03T17:20:45;12.43;;;6.97;;